sensor_id;sensor_type;location;lat;lon;timestamp;P1;durP1;ratioP1;P2;durP2;ratioP2
45863;SDS011;31579;52.354;16.974;2023-04-19T00:02:10;7.90;;;3.90;;
45863;SDS011;31579;52.354;16.974;2023-04-19T00:04:13;7.90;;;3.90;;
45863;SDS011;31579;52.354;16.974;2023-04-19T00:09:11;8.60;;;4.00;;
45863;SDS011;31579;52.354;16.974;2023-04-19T00:14:11;8.60;;;4.00;;
45863;SDS011;31579;52.354;16.974;2023-04-19T00:19:11;9.30;;;4.10;;
45863;SDS011;31579;52.354;16.974;2023-04-19T00:24:11;9.30;;;4.10;;
45863;SDS011;31579;52.354;16.974;2023-04-19T00:29:11;13.70;;;3.90;;
45863;SDS011;31579;52.354;16.974;2023-04-19T00:34:14;13.70;;;3.90;;
45863;SDS011;31579;52.354;16.974;2023-04-19T00:39:11;10.80;;;3.70;;
45863;SDS011;31579;52.354;16.974;2023-04-19T00:44:11;10.80;;;3.70;;
45863;SDS011;31579;52.354;16.974;2023-04-19T00:49:11;8.00;;;3.30;;
45863;SDS011;31579;52.354;16.974;2023-04-19T00:54:12;8.00;;;3.30;;
45863;SDS011;31579;52.354;16.974;2023-04-19T00:59:11;10.10;;;3.50;;
45863;SDS011;31579;52.354;16.974;2023-04-19T01:04:11;10.10;;;3.50;;
45863;SDS011;31579;52.354;16.974;2023-04-19T01:09:11;10.40;;;3.80;;
45863;SDS011;31579;52.354;16.974;2023-04-19T01:14:11;10.40;;;3.80;;
45863;SDS011;31579;52.354;16.974;2023-04-19T01:19:11;8.50;;;3.50;;
45863;SDS011;31579;52.354;16.974;2023-04-19T01:24:11;8.50;;;3.50;;
45863;SDS011;31579;52.354;16.974;2023-04-19T01:29:11;7.10;;;3.10;;
45863;SDS011;31579;52.354;16.974;2023-04-19T01:34:11;7.10;;;3.10;;
45863;SDS011;31579;52.354;16.974;2023-04-19T01:39:11;7.80;;;3.50;;
45863;SDS011;31579;52.354;16.974;2023-04-19T01:44:11;7.80;;;3.50;;
45863;SDS011;31579;52.354;16.974;2023-04-19T01:49:11;7.10;;;3.00;;
45863;SDS011;31579;52.354;16.974;2023-04-19T01:54:11;7.10;;;3.00;;
45863;SDS011;31579;52.354;16.974;2023-04-19T01:59:11;8.40;;;3.70;;
45863;SDS011;31579;52.354;16.974;2023-04-19T02:04:11;8.40;;;3.70;;
45863;SDS011;31579;52.354;16.974;2023-04-19T02:09:11;8.10;;;3.20;;
45863;SDS011;31579;52.354;16.974;2023-04-19T02:14:11;8.10;;;3.20;;
45863;SDS011;31579;52.354;16.974;2023-04-19T02:19:11;8.70;;;3.90;;
45863;SDS011;31579;52.354;16.974;2023-04-19T02:24:11;8.70;;;3.90;;
45863;SDS011;31579;52.354;16.974;2023-04-19T02:29:11;9.20;;;3.30;;
45863;SDS011;31579;52.354;16.974;2023-04-19T02:34:11;9.20;;;3.30;;
45863;SDS011;31579;52.354;16.974;2023-04-19T02:35:06;9.20;;;3.30;;
45863;SDS011;31579;52.354;16.974;2023-04-19T02:40:05;11.60;;;3.30;;
45863;SDS011;31579;52.354;16.974;2023-04-19T02:45:05;11.60;;;3.30;;
45863;SDS011;31579;52.354;16.974;2023-04-19T02:50:05;11.80;;;3.60;;
45863;SDS011;31579;52.354;16.974;2023-04-19T02:55:05;11.80;;;3.60;;
45863;SDS011;31579;52.354;16.974;2023-04-19T03:00:05;12.30;;;4.20;;
45863;SDS011;31579;52.354;16.974;2023-04-19T03:05:08;12.30;;;4.20;;
45863;SDS011;31579;52.354;16.974;2023-04-19T03:10:06;10.00;;;4.40;;
45863;SDS011;31579;52.354;16.974;2023-04-19T03:15:06;10.00;;;4.40;;
45863;SDS011;31579;52.354;16.974;2023-04-19T03:20:06;7.90;;;3.40;;
45863;SDS011;31579;52.354;16.974;2023-04-19T03:25:06;7.90;;;3.40;;
45863;SDS011;31579;52.354;16.974;2023-04-19T03:30:06;11.30;;;3.90;;
45863;SDS011;31579;52.354;16.974;2023-04-19T03:35:06;11.30;;;3.90;;
45863;SDS011;31579;52.354;16.974;2023-04-19T03:40:06;12.10;;;3.80;;
45863;SDS011;31579;52.354;16.974;2023-04-19T03:45:06;12.10;;;3.80;;
45863;SDS011;31579;52.354;16.974;2023-04-19T03:50:09;9.10;;;3.90;;
45863;SDS011;31579;52.354;16.974;2023-04-19T03:55:06;9.10;;;3.90;;
45863;SDS011;31579;52.354;16.974;2023-04-19T04:00:06;11.50;;;3.60;;
45863;SDS011;31579;52.354;16.974;2023-04-19T04:05:06;11.50;;;3.60;;
45863;SDS011;31579;52.354;16.974;2023-04-19T04:14:13;10.20;;;3.90;;
45863;SDS011;31579;52.354;16.974;2023-04-19T04:19:13;11.90;;;4.20;;
45863;SDS011;31579;52.354;16.974;2023-04-19T04:24:13;11.90;;;4.20;;
45863;SDS011;31579;52.354;16.974;2023-04-19T04:29:13;15.00;;;4.00;;
45863;SDS011;31579;52.354;16.974;2023-04-19T04:34:13;15.00;;;4.00;;
45863;SDS011;31579;52.354;16.974;2023-04-19T04:39:15;12.80;;;4.20;;
45863;SDS011;31579;52.354;16.974;2023-04-19T04:44:13;12.80;;;4.20;;
45863;SDS011;31579;52.354;16.974;2023-04-19T04:49:13;13.50;;;4.10;;
45863;SDS011;31579;52.354;16.974;2023-04-19T04:54:13;13.50;;;4.10;;
45863;SDS011;31579;52.354;16.974;2023-04-19T04:59:13;15.40;;;5.00;;
45863;SDS011;31579;52.354;16.974;2023-04-19T05:04:14;15.40;;;5.00;;
45863;SDS011;31579;52.354;16.974;2023-04-19T05:09:13;13.20;;;4.70;;
45863;SDS011;31579;52.354;16.974;2023-04-19T05:14:15;13.20;;;4.70;;
45863;SDS011;31579;52.354;16.974;2023-04-19T05:19:14;14.90;;;5.60;;
45863;SDS011;31579;52.354;16.974;2023-04-19T05:24:14;14.90;;;5.60;;
45863;SDS011;31579;52.354;16.974;2023-04-19T05:29:18;12.00;;;4.80;;
45863;SDS011;31579;52.354;16.974;2023-04-19T05:34:14;12.00;;;4.80;;
45863;SDS011;31579;52.354;16.974;2023-04-19T05:39:14;10.90;;;4.90;;
45863;SDS011;31579;52.354;16.974;2023-04-19T05:44:14;10.90;;;4.90;;
45863;SDS011;31579;52.354;16.974;2023-04-19T05:49:14;13.70;;;5.20;;
45863;SDS011;31579;52.354;16.974;2023-04-19T05:54:14;13.70;;;5.20;;
45863;SDS011;31579;52.354;16.974;2023-04-19T05:59:14;14.00;;;5.30;;
45863;SDS011;31579;52.354;16.974;2023-04-19T06:04:14;14.00;;;5.30;;
45863;SDS011;31579;52.354;16.974;2023-04-19T06:09:14;11.20;;;5.10;;
45863;SDS011;31579;52.354;16.974;2023-04-19T06:14:14;11.20;;;5.10;;
45863;SDS011;31579;52.354;16.974;2023-04-19T06:19:14;10.80;;;5.20;;
45863;SDS011;31579;52.354;16.974;2023-04-19T06:24:14;10.80;;;5.20;;
45863;SDS011;31579;52.354;16.974;2023-04-19T06:29:14;11.00;;;5.10;;
45863;SDS011;31579;52.354;16.974;2023-04-19T06:31:15;11.00;;;5.10;;
45863;SDS011;31579;52.354;16.974;2023-04-19T06:36:13;11.00;;;5.10;;
45863;SDS011;31579;52.354;16.974;2023-04-19T06:41:13;11.90;;;4.60;;
45863;SDS011;31579;52.354;16.974;2023-04-19T06:46:14;11.90;;;4.60;;
45863;SDS011;31579;52.354;16.974;2023-04-19T06:51:13;12.60;;;5.20;;
45863;SDS011;31579;52.354;16.974;2023-04-19T06:56:13;12.60;;;5.20;;
45863;SDS011;31579;52.354;16.974;2023-04-19T07:01:17;10.20;;;5.40;;
45863;SDS011;31579;52.354;16.974;2023-04-19T07:06:13;10.20;;;5.40;;
45863;SDS011;31579;52.354;16.974;2023-04-19T07:11:13;10.50;;;5.30;;
45863;SDS011;31579;52.354;16.974;2023-04-19T07:16:14;10.50;;;5.30;;
45863;SDS011;31579;52.354;16.974;2023-04-19T07:21:14;12.00;;;6.30;;
45863;SDS011;31579;52.354;16.974;2023-04-19T07:23:45;12.00;;;6.30;;
45863;SDS011;31579;52.354;16.974;2023-04-19T07:28:43;13.20;;;6.50;;
45863;SDS011;31579;52.354;16.974;2023-04-19T07:33:43;13.20;;;6.50;;
45863;SDS011;31579;52.354;16.974;2023-04-19T07:38:43;17.10;;;6.70;;
45863;SDS011;31579;52.354;16.974;2023-04-19T07:43:43;17.10;;;6.70;;
45863;SDS011;31579;52.354;16.974;2023-04-19T07:48:43;15.30;;;7.00;;
45863;SDS011;31579;52.354;16.974;2023-04-19T07:53:45;15.30;;;7.00;;
45863;SDS011;31579;52.354;16.974;2023-04-19T07:58:43;18.20;;;7.60;;
45863;SDS011;31579;52.354;16.974;2023-04-19T08:03:43;18.20;;;7.60;;
45863;SDS011;31579;52.354;16.974;2023-04-19T08:08:43;15.90;;;7.40;;
45863;SDS011;31579;52.354;16.974;2023-04-19T08:13:43;15.90;;;7.40;;
45863;SDS011;31579;52.354;16.974;2023-04-19T08:18:43;15.40;;;6.70;;
45863;SDS011;31579;52.354;16.974;2023-04-19T08:23:43;15.40;;;6.70;;
45863;SDS011;31579;52.354;16.974;2023-04-19T08:28:43;13.20;;;7.20;;
45863;SDS011;31579;52.354;16.974;2023-04-19T08:33:43;13.20;;;7.20;;
45863;SDS011;31579;52.354;16.974;2023-04-19T08:38:43;12.40;;;6.70;;
45863;SDS011;31579;52.354;16.974;2023-04-19T08:43:43;12.40;;;6.70;;
45863;SDS011;31579;52.354;16.974;2023-04-19T08:48:43;14.30;;;6.30;;
45863;SDS011;31579;52.354;16.974;2023-04-19T08:53:43;14.30;;;6.30;;
45863;SDS011;31579;52.354;16.974;2023-04-19T08:58:43;13.40;;;6.30;;
45863;SDS011;31579;52.354;16.974;2023-04-19T09:04:50;13.40;;;6.30;;
45863;SDS011;31579;52.354;16.974;2023-04-19T09:14:50;12.80;;;6.20;;
45863;SDS011;31579;52.354;16.974;2023-04-19T09:21:06;13.80;;;6.00;;
45863;SDS011;31579;52.354;16.974;2023-04-19T09:26:06;13.80;;;6.00;;
45863;SDS011;31579;52.354;16.974;2023-04-19T09:36:07;12.50;;;6.20;;
45863;SDS011;31579;52.354;16.974;2023-04-19T09:41:07;10.90;;;6.10;;
45863;SDS011;31579;52.354;16.974;2023-04-19T09:46:19;10.90;;;6.10;;
45863;SDS011;31579;52.354;16.974;2023-04-19T09:51:06;16.40;;;7.30;;
45863;SDS011;31579;52.354;16.974;2023-04-19T09:56:06;16.40;;;7.30;;
45863;SDS011;31579;52.354;16.974;2023-04-19T10:01:08;14.70;;;7.30;;
45863;SDS011;31579;52.354;16.974;2023-04-19T10:06:06;14.70;;;7.30;;
45863;SDS011;31579;52.354;16.974;2023-04-19T10:11:06;15.10;;;8.00;;
45863;SDS011;31579;52.354;16.974;2023-04-19T10:16:06;15.10;;;8.00;;
45863;SDS011;31579;52.354;16.974;2023-04-19T10:21:07;15.10;;;8.20;;
45863;SDS011;31579;52.354;16.974;2023-04-19T10:25:01;15.10;;;8.20;;
45863;SDS011;31579;52.354;16.974;2023-04-19T10:34:39;15.60;;;7.90;;
45863;SDS011;31579;52.354;16.974;2023-04-19T10:39:41;13.90;;;8.00;;
45863;SDS011;31579;52.354;16.974;2023-04-19T10:44:39;13.90;;;8.00;;
45863;SDS011;31579;52.354;16.974;2023-04-19T10:53:46;12.40;;;7.30;;
45863;SDS011;31579;52.354;16.974;2023-04-19T11:08:43;13.00;;;7.30;;
45863;SDS011;31579;52.354;16.974;2023-04-19T11:13:04;13.00;;;7.30;;
45863;SDS011;31579;52.354;16.974;2023-04-19T11:18:03;14.30;;;7.30;;
45863;SDS011;31579;52.354;16.974;2023-04-19T11:22:54;14.30;;;7.30;;
45863;SDS011;31579;52.354;16.974;2023-04-19T11:27:52;14.90;;;7.40;;
45863;SDS011;31579;52.354;16.974;2023-04-19T11:32:52;14.90;;;7.40;;
45863;SDS011;31579;52.354;16.974;2023-04-19T11:37:52;13.80;;;8.00;;
45863;SDS011;31579;52.354;16.974;2023-04-19T11:42:54;13.80;;;8.00;;
45863;SDS011;31579;52.354;16.974;2023-04-19T11:47:52;13.50;;;7.90;;
45863;SDS011;31579;52.354;16.974;2023-04-19T11:52:53;13.50;;;7.90;;
45863;SDS011;31579;52.354;16.974;2023-04-19T11:57:52;13.90;;;7.90;;
45863;SDS011;31579;52.354;16.974;2023-04-19T12:02:52;13.90;;;7.90;;
45863;SDS011;31579;52.354;16.974;2023-04-19T12:12:52;15.50;;;8.20;;
45863;SDS011;31579;52.354;16.974;2023-04-19T12:22:52;15.60;;;8.00;;
45863;SDS011;31579;52.354;16.974;2023-04-19T12:27:52;13.30;;;7.90;;
45863;SDS011;31579;52.354;16.974;2023-04-19T12:32:53;13.30;;;7.90;;
45863;SDS011;31579;52.354;16.974;2023-04-19T12:37:54;12.20;;;6.70;;
45863;SDS011;31579;52.354;16.974;2023-04-19T12:42:52;12.20;;;6.70;;
45863;SDS011;31579;52.354;16.974;2023-04-19T12:48:03;16.00;;;8.20;;
45863;SDS011;31579;52.354;16.974;2023-04-19T12:53:03;16.00;;;8.20;;
45863;SDS011;31579;52.354;16.974;2023-04-19T12:58:03;14.60;;;7.90;;
45863;SDS011;31579;52.354;16.974;2023-04-19T13:03:03;14.60;;;7.90;;
45863;SDS011;31579;52.354;16.974;2023-04-19T13:08:04;18.80;;;8.10;;
45863;SDS011;31579;52.354;16.974;2023-04-19T13:13:05;18.80;;;8.10;;
45863;SDS011;31579;52.354;16.974;2023-04-19T13:18:03;14.10;;;7.90;;
45863;SDS011;31579;52.354;16.974;2023-04-19T13:20:38;14.10;;;7.90;;
45863;SDS011;31579;52.354;16.974;2023-04-19T13:25:36;14.10;;;7.90;;
45863;SDS011;31579;52.354;16.974;2023-04-19T13:30:36;18.00;;;9.20;;
45863;SDS011;31579;52.354;16.974;2023-04-19T13:35:36;18.00;;;9.20;;
45863;SDS011;31579;52.354;16.974;2023-04-19T13:40:36;16.80;;;9.30;;
45863;SDS011;31579;52.354;16.974;2023-04-19T13:45:37;16.80;;;9.30;;
45863;SDS011;31579;52.354;16.974;2023-04-19T13:50:39;15.20;;;8.70;;
45863;SDS011;31579;52.354;16.974;2023-04-19T14:00:46;15.70;;;9.00;;
45863;SDS011;31579;52.354;16.974;2023-04-19T14:05:46;15.70;;;9.00;;
45863;SDS011;31579;52.354;16.974;2023-04-19T14:10:46;14.90;;;8.80;;
45863;SDS011;31579;52.354;16.974;2023-04-19T14:15:46;14.90;;;8.80;;
45863;SDS011;31579;52.354;16.974;2023-04-19T14:20:46;16.70;;;9.20;;
45863;SDS011;31579;52.354;16.974;2023-04-19T14:25:49;16.70;;;9.20;;
45863;SDS011;31579;52.354;16.974;2023-04-19T14:30:46;16.00;;;9.30;;
45863;SDS011;31579;52.354;16.974;2023-04-19T14:35:46;16.00;;;9.30;;
45863;SDS011;31579;52.354;16.974;2023-04-19T14:40:57;15.90;;;9.00;;
45863;SDS011;31579;52.354;16.974;2023-04-19T14:45:55;15.90;;;9.00;;
45863;SDS011;31579;52.354;16.974;2023-04-19T14:50:55;16.40;;;8.30;;
45863;SDS011;31579;52.354;16.974;2023-04-19T14:55:55;16.40;;;8.30;;
45863;SDS011;31579;52.354;16.974;2023-04-19T15:00:57;13.50;;;8.20;;
45863;SDS011;31579;52.354;16.974;2023-04-19T15:05:55;13.50;;;8.20;;
45863;SDS011;31579;52.354;16.974;2023-04-19T15:10:56;15.00;;;8.80;;
45863;SDS011;31579;52.354;16.974;2023-04-19T15:15:55;15.00;;;8.80;;
45863;SDS011;31579;52.354;16.974;2023-04-19T15:20:55;15.90;;;9.40;;
45863;SDS011;31579;52.354;16.974;2023-04-19T15:25:55;15.90;;;9.40;;
45863;SDS011;31579;52.354;16.974;2023-04-19T15:30:11;17.50;;;8.80;;
45863;SDS011;31579;52.354;16.974;2023-04-19T15:35:09;17.50;;;8.80;;
45863;SDS011;31579;52.354;16.974;2023-04-19T15:40:10;17.00;;;10.50;;
45863;SDS011;31579;52.354;16.974;2023-04-19T15:45:09;17.00;;;10.50;;
45863;SDS011;31579;52.354;16.974;2023-04-19T15:50:09;20.10;;;11.80;;
45863;SDS011;31579;52.354;16.974;2023-04-19T15:55:09;20.10;;;11.80;;
45863;SDS011;31579;52.354;16.974;2023-04-19T16:00:11;19.60;;;11.70;;
45863;SDS011;31579;52.354;16.974;2023-04-19T16:05:09;19.60;;;11.70;;
45863;SDS011;31579;52.354;16.974;2023-04-19T16:10:10;25.10;;;13.70;;
45863;SDS011;31579;52.354;16.974;2023-04-19T16:19:03;21.40;;;13.30;;
45863;SDS011;31579;52.354;16.974;2023-04-19T16:24:03;21.40;;;13.30;;
45863;SDS011;31579;52.354;16.974;2023-04-19T16:29:03;23.70;;;14.20;;
45863;SDS011;31579;52.354;16.974;2023-04-19T16:34:03;23.70;;;14.20;;
45863;SDS011;31579;52.354;16.974;2023-04-19T16:39:03;26.20;;;14.40;;
45863;SDS011;31579;52.354;16.974;2023-04-19T16:44:06;26.20;;;14.40;;
45863;SDS011;31579;52.354;16.974;2023-04-19T16:46:09;26.20;;;14.40;;
45863;SDS011;31579;52.354;16.974;2023-04-19T16:51:07;27.50;;;15.60;;
45863;SDS011;31579;52.354;16.974;2023-04-19T16:56:07;27.50;;;15.60;;
45863;SDS011;31579;52.354;16.974;2023-04-19T17:01:07;32.80;;;18.80;;
45863;SDS011;31579;52.354;16.974;2023-04-19T17:06:07;32.80;;;18.80;;
45863;SDS011;31579;52.354;16.974;2023-04-19T17:11:07;34.20;;;20.00;;
45863;SDS011;31579;52.354;16.974;2023-04-19T17:15:05;34.20;;;20.00;;
45863;SDS011;31579;52.354;16.974;2023-04-19T17:21:21;34.20;;;20.00;;
45863;SDS011;31579;52.354;16.974;2023-04-19T17:26:21;34.20;;;20.00;;
45863;SDS011;31579;52.354;16.974;2023-04-19T17:31:21;34.80;;;19.70;;
45863;SDS011;31579;52.354;16.974;2023-04-19T17:36:21;34.80;;;19.70;;
45863;SDS011;31579;52.354;16.974;2023-04-19T17:41:21;37.60;;;22.20;;
45863;SDS011;31579;52.354;16.974;2023-04-19T17:50:18;36.80;;;21.20;;
45863;SDS011;31579;52.354;16.974;2023-04-19T17:55:18;36.80;;;21.20;;
45863;SDS011;31579;52.354;16.974;2023-04-19T18:00:18;28.60;;;16.80;;
45863;SDS011;31579;52.354;16.974;2023-04-19T18:05:18;28.60;;;16.80;;
45863;SDS011;31579;52.354;16.974;2023-04-19T18:10:19;27.20;;;16.60;;
45863;SDS011;31579;52.354;16.974;2023-04-19T18:15:18;27.20;;;16.60;;
45863;SDS011;31579;52.354;16.974;2023-04-19T18:20:18;31.90;;;18.70;;
45863;SDS011;31579;52.354;16.974;2023-04-19T18:25:18;31.90;;;18.70;;
45863;SDS011;31579;52.354;16.974;2023-04-19T18:30:18;30.40;;;17.90;;
45863;SDS011;31579;52.354;16.974;2023-04-19T18:35:19;30.40;;;17.90;;
45863;SDS011;31579;52.354;16.974;2023-04-19T18:40:18;31.10;;;18.70;;
45863;SDS011;31579;52.354;16.974;2023-04-19T18:45:21;31.10;;;18.70;;
45863;SDS011;31579;52.354;16.974;2023-04-19T18:50:18;25.50;;;15.60;;
45863;SDS011;31579;52.354;16.974;2023-04-19T18:55:18;25.50;;;15.60;;
45863;SDS011;31579;52.354;16.974;2023-04-19T19:00:18;25.90;;;16.10;;
45863;SDS011;31579;52.354;16.974;2023-04-19T19:05:18;25.90;;;16.10;;
45863;SDS011;31579;52.354;16.974;2023-04-19T19:10:19;27.80;;;17.80;;
45863;SDS011;31579;52.354;16.974;2023-04-19T19:15:18;27.80;;;17.80;;
45863;SDS011;31579;52.354;16.974;2023-04-19T19:20:18;33.40;;;19.20;;
45863;SDS011;31579;52.354;16.974;2023-04-19T19:25:18;33.40;;;19.20;;
45863;SDS011;31579;52.354;16.974;2023-04-19T19:30:10;31.70;;;19.80;;
45863;SDS011;31579;52.354;16.974;2023-04-19T19:35:08;31.70;;;19.80;;
45863;SDS011;31579;52.354;16.974;2023-04-19T19:40:09;30.80;;;18.90;;
45863;SDS011;31579;52.354;16.974;2023-04-19T19:45:08;30.80;;;18.90;;
45863;SDS011;31579;52.354;16.974;2023-04-19T19:50:08;32.80;;;19.50;;
45863;SDS011;31579;52.354;16.974;2023-04-19T19:55:08;32.80;;;19.50;;
45863;SDS011;31579;52.354;16.974;2023-04-19T20:00:09;30.10;;;18.50;;
45863;SDS011;31579;52.354;16.974;2023-04-19T20:05:08;30.10;;;18.50;;
45863;SDS011;31579;52.354;16.974;2023-04-19T20:10:09;40.40;;;23.80;;
45863;SDS011;31579;52.354;16.974;2023-04-19T20:15:09;40.40;;;23.80;;
45863;SDS011;31579;52.354;16.974;2023-04-19T20:20:18;34.70;;;19.40;;
45863;SDS011;31579;52.354;16.974;2023-04-19T20:25:16;34.70;;;19.40;;
45863;SDS011;31579;52.354;16.974;2023-04-19T20:30:16;30.40;;;18.60;;
45863;SDS011;31579;52.354;16.974;2023-04-19T20:35:16;30.40;;;18.60;;
45863;SDS011;31579;52.354;16.974;2023-04-19T20:36:31;26.70;;;16.50;;
45863;SDS011;31579;52.354;16.974;2023-04-19T20:41:30;26.70;;;16.50;;
45863;SDS011;31579;52.354;16.974;2023-04-19T20:46:30;26.70;;;16.50;;
45863;SDS011;31579;52.354;16.974;2023-04-19T20:51:30;24.40;;;15.20;;
45863;SDS011;31579;52.354;16.974;2023-04-19T20:56:30;24.40;;;15.20;;
45863;SDS011;31579;52.354;16.974;2023-04-19T21:01:30;23.70;;;14.50;;
45863;SDS011;31579;52.354;16.974;2023-04-19T21:06:33;23.70;;;14.50;;
45863;SDS011;31579;52.354;16.974;2023-04-19T21:11:30;23.20;;;14.60;;
45863;SDS011;31579;52.354;16.974;2023-04-19T21:16:30;23.20;;;14.60;;
45863;SDS011;31579;52.354;16.974;2023-04-19T21:21:41;21.60;;;14.30;;
45863;SDS011;31579;52.354;16.974;2023-04-19T21:26:39;21.60;;;14.30;;
45863;SDS011;31579;52.354;16.974;2023-04-19T21:31:39;23.30;;;14.90;;
45863;SDS011;31579;52.354;16.974;2023-04-19T21:36:39;23.30;;;14.90;;
45863;SDS011;31579;52.354;16.974;2023-04-19T21:41:40;31.40;;;17.80;;
45863;SDS011;31579;52.354;16.974;2023-04-19T21:46:39;31.40;;;17.80;;
45863;SDS011;31579;52.354;16.974;2023-04-19T21:51:42;35.90;;;21.70;;
45863;SDS011;31579;52.354;16.974;2023-04-19T21:59:47;38.90;;;22.60;;
45863;SDS011;31579;52.354;16.974;2023-04-19T22:04:47;38.90;;;22.60;;
45863;SDS011;31579;52.354;16.974;2023-04-19T22:09:47;40.30;;;24.40;;
45863;SDS011;31579;52.354;16.974;2023-04-19T22:14:47;40.30;;;24.40;;
45863;SDS011;31579;52.354;16.974;2023-04-19T22:18:32;48.60;;;28.00;;
45863;SDS011;31579;52.354;16.974;2023-04-19T22:23:30;48.60;;;28.00;;
45863;SDS011;31579;52.354;16.974;2023-04-19T22:28:40;54.90;;;29.20;;
45863;SDS011;31579;52.354;16.974;2023-04-19T22:33:38;54.90;;;29.20;;
45863;SDS011;31579;52.354;16.974;2023-04-19T22:38:38;59.60;;;34.20;;
45863;SDS011;31579;52.354;16.974;2023-04-19T22:43:43;59.60;;;34.20;;
45863;SDS011;31579;52.354;16.974;2023-04-19T22:48:38;67.90;;;35.10;;
45863;SDS011;31579;52.354;16.974;2023-04-19T22:53:38;67.90;;;35.10;;
45863;SDS011;31579;52.354;16.974;2023-04-19T22:58:39;64.40;;;34.90;;
45863;SDS011;31579;52.354;16.974;2023-04-19T23:03:38;64.40;;;34.90;;
45863;SDS011;31579;52.354;16.974;2023-04-19T23:08:38;66.70;;;35.70;;
45863;SDS011;31579;52.354;16.974;2023-04-19T23:13:38;66.70;;;35.70;;
45863;SDS011;31579;52.354;16.974;2023-04-19T23:18:38;63.20;;;33.00;;
45863;SDS011;31579;52.354;16.974;2023-04-19T23:23:38;63.20;;;33.00;;
45863;SDS011;31579;52.354;16.974;2023-04-19T23:28:38;56.80;;;32.00;;
45863;SDS011;31579;52.354;16.974;2023-04-19T23:33:38;56.80;;;32.00;;
45863;SDS011;31579;52.354;16.974;2023-04-19T23:38:47;57.00;;;31.20;;
45863;SDS011;31579;52.354;16.974;2023-04-19T23:43:47;57.00;;;31.20;;
45863;SDS011;31579;52.354;16.974;2023-04-19T23:48:47;48.10;;;27.70;;
45863;SDS011;31579;52.354;16.974;2023-04-19T23:53:47;48.10;;;27.70;;
